sensor_id;sensor_type;location;lat;lon;timestamp;pressure;altitude;pressure_sealevel;temperature;humidity
57644;BME280;43474;46.510;6.686;2023-02-26T00:02:23;95282.50;;;2.14;77.63
57644;BME280;43474;46.510;6.686;2023-02-26T00:04:48;95292.75;;;2.16;76.95
57644;BME280;43474;46.510;6.686;2023-02-26T00:07:14;95278.25;;;2.13;79.03
57644;BME280;43474;46.510;6.686;2023-02-26T00:09:40;95283.16;;;2.03;77.81
57644;BME280;43474;46.510;6.686;2023-02-26T00:12:06;95272.13;;;2.01;78.68
57644;BME280;43474;46.510;6.686;2023-02-26T00:14:31;95286.53;;;2.10;79.08
57644;BME280;43474;46.510;6.686;2023-02-26T00:17:22;95268.75;;;1.94;79.35
57644;BME280;43474;46.510;6.686;2023-02-26T00:19:48;95274.97;;;1.93;79.51
57644;BME280;43474;46.510;6.686;2023-02-26T00:22:14;95277.41;;;1.94;79.70
57644;BME280;43474;46.510;6.686;2023-02-26T00:24:40;95287.69;;;1.89;79.26
57644;BME280;43474;46.510;6.686;2023-02-26T00:27:06;95287.28;;;1.86;79.06
57644;BME280;43474;46.510;6.686;2023-02-26T00:29:32;95271.00;;;1.84;78.92
57644;BME280;43474;46.510;6.686;2023-02-26T00:31:58;95285.31;;;1.81;79.98
57644;BME280;43474;46.510;6.686;2023-02-26T00:34:24;95273.72;;;1.70;79.32
57644;BME280;43474;46.510;6.686;2023-02-26T00:37:05;95264.47;;;1.68;77.83
57644;BME280;43474;46.510;6.686;2023-02-26T00:40:02;95272.13;;;1.63;79.99
57644;BME280;43474;46.510;6.686;2023-02-26T00:42:31;95296.66;;;1.62;78.45
57644;BME280;43474;46.510;6.686;2023-02-26T00:44:57;95271.94;;;1.64;77.50
57644;BME280;43474;46.510;6.686;2023-02-26T00:47:50;95286.00;;;1.63;77.83
57644;BME280;43474;46.510;6.686;2023-02-26T00:50:19;95276.56;;;1.62;77.36
57644;BME280;43474;46.510;6.686;2023-02-26T00:55:26;95277.41;;;1.56;76.72
57644;BME280;43474;46.510;6.686;2023-02-26T00:57:52;95273.19;;;1.55;76.72
57644;BME280;43474;46.510;6.686;2023-02-26T01:00:18;95276.00;;;1.53;76.76
57644;BME280;43474;46.510;6.686;2023-02-26T01:02:44;95277.06;;;1.46;77.54
57644;BME280;43474;46.510;6.686;2023-02-26T01:05:10;95284.84;;;1.52;76.29
57644;BME280;43474;46.510;6.686;2023-02-26T01:07:46;95270.81;;;1.47;77.33
57644;BME280;43474;46.510;6.686;2023-02-26T01:10:15;95278.47;;;1.42;78.58
57644;BME280;43474;46.510;6.686;2023-02-26T01:12:41;95279.09;;;1.37;78.51
57644;BME280;43474;46.510;6.686;2023-02-26T01:15:07;95293.50;;;1.46;80.52
57644;BME280;43474;46.510;6.686;2023-02-26T01:17:49;95289.50;;;1.44;79.80
57644;BME280;43474;46.510;6.686;2023-02-26T01:20:20;95272.22;;;1.43;81.17
57644;BME280;43474;46.510;6.686;2023-02-26T01:22:53;95269.22;;;1.39;82.62
57644;BME280;43474;46.510;6.686;2023-02-26T01:28:00;95284.31;;;1.37;83.27
57644;BME280;43474;46.510;6.686;2023-02-26T01:30:26;95282.94;;;1.35;84.97
57644;BME280;43474;46.510;6.686;2023-02-26T01:35:59;95273.09;;;1.30;84.25
57644;BME280;43474;46.510;6.686;2023-02-26T01:38:33;95271.06;;;1.32;84.83
57644;BME280;43474;46.510;6.686;2023-02-26T01:41:16;95293.97;;;1.23;86.83
57644;BME280;43474;46.510;6.686;2023-02-26T01:44:18;95266.91;;;1.18;86.35
57644;BME280;43474;46.510;6.686;2023-02-26T01:47:14;95282.59;;;1.11;87.01
57644;BME280;43474;46.510;6.686;2023-02-26T01:49:41;95256.50;;;1.11;86.63
57644;BME280;43474;46.510;6.686;2023-02-26T01:55:28;95271.16;;;1.12;86.89
57644;BME280;43474;46.510;6.686;2023-02-26T01:57:56;95275.97;;;1.15;87.42
57644;BME280;43474;46.510;6.686;2023-02-26T02:00:23;95265.16;;;1.05;88.69
57644;BME280;43474;46.510;6.686;2023-02-26T02:02:49;95266.75;;;0.99;89.26
57644;BME280;43474;46.510;6.686;2023-02-26T02:05:40;95262.38;;;1.00;88.54
57644;BME280;43474;46.510;6.686;2023-02-26T02:08:07;95269.78;;;0.96;90.47
57644;BME280;43474;46.510;6.686;2023-02-26T02:10:32;95247.94;;;0.84;90.33
57644;BME280;43474;46.510;6.686;2023-02-26T02:13:05;95282.84;;;0.96;89.85
57644;BME280;43474;46.510;6.686;2023-02-26T02:21:24;95281.84;;;0.91;91.88
57644;BME280;43474;46.510;6.686;2023-02-26T02:24:00;95280.00;;;0.98;91.50
57644;BME280;43474;46.510;6.686;2023-02-26T02:32:10;95272.41;;;0.83;93.92
57644;BME280;43474;46.510;6.686;2023-02-26T02:34:45;95269.41;;;0.80;94.90
57644;BME280;43474;46.510;6.686;2023-02-26T02:37:26;95265.81;;;0.74;94.83
57644;BME280;43474;46.510;6.686;2023-02-26T02:39:59;95260.84;;;0.52;95.69
57644;BME280;43474;46.510;6.686;2023-02-26T02:43:00;95270.06;;;0.62;95.79
57644;BME280;43474;46.510;6.686;2023-02-26T02:48:03;95303.56;;;0.45;97.47
57644;BME280;43474;46.510;6.686;2023-02-26T02:50:37;95314.97;;;0.44;98.08
57644;BME280;43474;46.510;6.686;2023-02-26T02:55:39;95305.56;;;0.36;97.39
57644;BME280;43474;46.510;6.686;2023-02-26T02:58:12;95329.59;;;0.32;98.14
57644;BME280;43474;46.510;6.686;2023-02-26T03:00:44;95335.19;;;0.29;98.80
57644;BME280;43474;46.510;6.686;2023-02-26T03:03:27;95337.59;;;0.23;97.90
57644;BME280;43474;46.510;6.686;2023-02-26T03:05:55;95329.78;;;0.17;97.83
57644;BME280;43474;46.510;6.686;2023-02-26T03:08:26;95336.59;;;0.24;97.54
57644;BME280;43474;46.510;6.686;2023-02-26T03:10:52;95332.59;;;0.15;98.10
57644;BME280;43474;46.510;6.686;2023-02-26T03:13:23;95355.84;;;0.17;98.71
57644;BME280;43474;46.510;6.686;2023-02-26T03:16:06;95338.38;;;-0.03;99.58
57644;BME280;43474;46.510;6.686;2023-02-26T03:24:08;95369.25;;;0.07;99.87
57644;BME280;43474;46.510;6.686;2023-02-26T03:26:47;95358.63;;;0.02;100.00
57644;BME280;43474;46.510;6.686;2023-02-26T03:29:36;95356.59;;;-0.09;100.00
57644;BME280;43474;46.510;6.686;2023-02-26T03:32:07;95369.78;;;-0.11;100.00
57644;BME280;43474;46.510;6.686;2023-02-26T03:34:42;95330.78;;;-0.52;100.00
57644;BME280;43474;46.510;6.686;2023-02-26T03:37:18;95350.84;;;-0.46;100.00
57644;BME280;43474;46.510;6.686;2023-02-26T03:39:50;95347.44;;;-0.46;100.00
57644;BME280;43474;46.510;6.686;2023-02-26T03:42:27;95354.22;;;-0.45;100.00
57644;BME280;43474;46.510;6.686;2023-02-26T03:45:01;95343.81;;;-0.45;100.00
57644;BME280;43474;46.510;6.686;2023-02-26T03:47:29;95351.09;;;-0.34;100.00
57644;BME280;43474;46.510;6.686;2023-02-26T03:50:10;95351.06;;;-0.41;100.00
57644;BME280;43474;46.510;6.686;2023-02-26T03:52:39;95357.25;;;-0.42;100.00
57644;BME280;43474;46.510;6.686;2023-02-26T03:55:17;95339.91;;;-0.28;100.00
57644;BME280;43474;46.510;6.686;2023-02-26T03:57:43;95341.28;;;-0.26;100.00
57644;BME280;43474;46.510;6.686;2023-02-26T04:00:10;95346.13;;;-0.22;100.00
57644;BME280;43474;46.510;6.686;2023-02-26T04:02:48;95347.91;;;-0.30;100.00
57644;BME280;43474;46.510;6.686;2023-02-26T04:05:25;95355.91;;;-0.31;100.00
57644;BME280;43474;46.510;6.686;2023-02-26T04:07:52;95357.31;;;-0.29;100.00
57644;BME280;43474;46.510;6.686;2023-02-26T04:10:21;95361.88;;;-0.37;100.00
57644;BME280;43474;46.510;6.686;2023-02-26T04:12:49;95365.66;;;-0.46;100.00
57644;BME280;43474;46.510;6.686;2023-02-26T04:15:15;95357.28;;;-0.35;99.61
57644;BME280;43474;46.510;6.686;2023-02-26T04:17:40;95362.69;;;-0.30;99.29
57644;BME280;43474;46.510;6.686;2023-02-26T04:20:06;95372.91;;;-0.35;98.39
57644;BME280;43474;46.510;6.686;2023-02-26T04:22:34;95366.66;;;-0.41;98.85
57644;BME280;43474;46.510;6.686;2023-02-26T04:24:59;95356.84;;;-0.45;98.23
57644;BME280;43474;46.510;6.686;2023-02-26T04:27:25;95372.66;;;-0.47;98.48
57644;BME280;43474;46.510;6.686;2023-02-26T04:29:51;95370.06;;;-0.40;98.18
57644;BME280;43474;46.510;6.686;2023-02-26T04:32:16;95374.09;;;-0.38;97.34
57644;BME280;43474;46.510;6.686;2023-02-26T04:34:42;95362.25;;;-0.40;95.99
57644;BME280;43474;46.510;6.686;2023-02-26T04:37:07;95375.69;;;-0.43;97.87
57644;BME280;43474;46.510;6.686;2023-02-26T04:39:33;95359.88;;;-0.42;95.61
57644;BME280;43474;46.510;6.686;2023-02-26T04:41:59;95362.44;;;-0.48;95.34
57644;BME280;43474;46.510;6.686;2023-02-26T04:44:24;95360.25;;;-0.45;96.43
57644;BME280;43474;46.510;6.686;2023-02-26T04:46:50;95356.81;;;-0.52;95.68
57644;BME280;43474;46.510;6.686;2023-02-26T04:49:15;95363.91;;;-0.33;93.66
57644;BME280;43474;46.510;6.686;2023-02-26T04:51:41;95362.91;;;-0.32;93.19
57644;BME280;43474;46.510;6.686;2023-02-26T04:54:07;95338.63;;;-0.45;93.13
57644;BME280;43474;46.510;6.686;2023-02-26T04:56:32;95357.69;;;-0.32;92.79
57644;BME280;43474;46.510;6.686;2023-02-26T04:58:58;95357.69;;;-0.38;92.13
57644;BME280;43474;46.510;6.686;2023-02-26T05:01:23;95354.69;;;-0.35;91.73
57644;BME280;43474;46.510;6.686;2023-02-26T05:03:49;95367.09;;;-0.37;91.56
57644;BME280;43474;46.510;6.686;2023-02-26T05:06:15;95357.06;;;-0.40;91.15
57644;BME280;43474;46.510;6.686;2023-02-26T05:08:40;95364.25;;;-0.49;93.44
57644;BME280;43474;46.510;6.686;2023-02-26T05:11:09;95357.03;;;-0.47;92.51
57644;BME280;43474;46.510;6.686;2023-02-26T05:13:34;95374.53;;;-0.34;91.97
57644;BME280;43474;46.510;6.686;2023-02-26T05:16:00;95369.25;;;-0.47;93.01
57644;BME280;43474;46.510;6.686;2023-02-26T05:18:26;95370.69;;;-0.38;92.71
57644;BME280;43474;46.510;6.686;2023-02-26T05:20:53;95377.72;;;-0.39;92.54
57644;BME280;43474;46.510;6.686;2023-02-26T05:23:19;95374.84;;;-0.50;94.24
57644;BME280;43474;46.510;6.686;2023-02-26T05:25:44;95378.84;;;-0.55;94.65
57644;BME280;43474;46.510;6.686;2023-02-26T05:28:10;95361.34;;;-0.67;95.52
57644;BME280;43474;46.510;6.686;2023-02-26T05:30:35;95388.03;;;-0.59;96.37
57644;BME280;43474;46.510;6.686;2023-02-26T05:33:01;95383.53;;;-0.71;97.87
57644;BME280;43474;46.510;6.686;2023-02-26T05:35:27;95376.06;;;-0.81;97.91
57644;BME280;43474;46.510;6.686;2023-02-26T05:37:52;95383.44;;;-0.85;97.24
57644;BME280;43474;46.510;6.686;2023-02-26T05:40:18;95390.09;;;-0.75;96.25
57644;BME280;43474;46.510;6.686;2023-02-26T05:42:43;95374.22;;;-0.94;96.91
57644;BME280;43474;46.510;6.686;2023-02-26T05:45:09;95390.41;;;-0.92;96.36
57644;BME280;43474;46.510;6.686;2023-02-26T05:47:36;95381.47;;;-1.11;97.92
57644;BME280;43474;46.510;6.686;2023-02-26T05:50:02;95385.69;;;-1.10;97.15
57644;BME280;43474;46.510;6.686;2023-02-26T05:52:28;95397.31;;;-1.06;97.05
57644;BME280;43474;46.510;6.686;2023-02-26T05:54:53;95393.88;;;-1.13;96.87
57644;BME280;43474;46.510;6.686;2023-02-26T05:57:21;95378.84;;;-1.17;96.28
57644;BME280;43474;46.510;6.686;2023-02-26T05:59:46;95380.34;;;-1.30;95.79
57644;BME280;43474;46.510;6.686;2023-02-26T06:02:12;95384.94;;;-1.32;94.02
57644;BME280;43474;46.510;6.686;2023-02-26T06:04:37;95387.97;;;-1.28;93.66
57644;BME280;43474;46.510;6.686;2023-02-26T06:07:03;95394.53;;;-1.32;91.84
57644;BME280;43474;46.510;6.686;2023-02-26T06:09:29;95385.13;;;-1.33;91.23
57644;BME280;43474;46.510;6.686;2023-02-26T06:11:54;95380.25;;;-1.43;91.74
57644;BME280;43474;46.510;6.686;2023-02-26T06:14:20;95395.66;;;-1.41;93.29
57644;BME280;43474;46.510;6.686;2023-02-26T06:16:46;95379.63;;;-1.45;91.90
57644;BME280;43474;46.510;6.686;2023-02-26T06:19:11;95387.00;;;-1.48;91.91
57644;BME280;43474;46.510;6.686;2023-02-26T06:21:37;95395.75;;;-1.49;91.39
57644;BME280;43474;46.510;6.686;2023-02-26T06:24:02;95387.31;;;-1.58;93.73
57644;BME280;43474;46.510;6.686;2023-02-26T06:26:28;95401.66;;;-1.62;94.52
57644;BME280;43474;46.510;6.686;2023-02-26T06:28:54;95404.25;;;-1.62;94.50
57644;BME280;43474;46.510;6.686;2023-02-26T06:31:20;95406.81;;;-1.69;95.06
57644;BME280;43474;46.510;6.686;2023-02-26T06:33:45;95387.53;;;-1.74;93.51
57644;BME280;43474;46.510;6.686;2023-02-26T06:36:11;95400.72;;;-1.76;94.11
57644;BME280;43474;46.510;6.686;2023-02-26T06:38:36;95403.63;;;-1.64;93.65
57644;BME280;43474;46.510;6.686;2023-02-26T06:41:02;95408.91;;;-1.58;90.90
57644;BME280;43474;46.510;6.686;2023-02-26T06:43:27;95423.03;;;-1.60;91.90
57644;BME280;43474;46.510;6.686;2023-02-26T06:45:58;95404.38;;;-1.70;92.28
57644;BME280;43474;46.510;6.686;2023-02-26T06:48:25;95416.00;;;-1.66;89.83
57644;BME280;43474;46.510;6.686;2023-02-26T06:50:51;95419.41;;;-1.66;88.64
57644;BME280;43474;46.510;6.686;2023-02-26T06:53:16;95412.72;;;-1.75;87.60
57644;BME280;43474;46.510;6.686;2023-02-26T06:55:43;95422.44;;;-1.62;87.30
57644;BME280;43474;46.510;6.686;2023-02-26T06:58:09;95413.41;;;-1.66;86.86
57644;BME280;43474;46.510;6.686;2023-02-26T07:00:36;95420.16;;;-1.72;85.48
57644;BME280;43474;46.510;6.686;2023-02-26T07:03:03;95411.81;;;-1.67;85.84
57644;BME280;43474;46.510;6.686;2023-02-26T07:05:28;95403.88;;;-1.80;85.66
57644;BME280;43474;46.510;6.686;2023-02-26T07:07:54;95420.41;;;-1.67;86.03
57644;BME280;43474;46.510;6.686;2023-02-26T07:10:20;95417.50;;;-1.57;83.80
57644;BME280;43474;46.510;6.686;2023-02-26T07:12:49;95414.94;;;-1.50;83.79
57644;BME280;43474;46.510;6.686;2023-02-26T07:15:15;95423.19;;;-1.47;83.21
57644;BME280;43474;46.510;6.686;2023-02-26T07:17:41;95416.00;;;-1.45;82.69
57644;BME280;43474;46.510;6.686;2023-02-26T07:20:08;95410.78;;;-1.45;82.87
57644;BME280;43474;46.510;6.686;2023-02-26T07:22:35;95404.00;;;-1.46;82.51
57644;BME280;43474;46.510;6.686;2023-02-26T07:25:03;95405.69;;;-1.38;82.05
57644;BME280;43474;46.510;6.686;2023-02-26T07:27:29;95399.84;;;-1.40;83.50
57644;BME280;43474;46.510;6.686;2023-02-26T07:29:55;95395.09;;;-1.37;81.80
57644;BME280;43474;46.510;6.686;2023-02-26T07:32:21;95384.56;;;-1.28;82.20
57644;BME280;43474;46.510;6.686;2023-02-26T07:34:47;95382.44;;;-1.18;81.45
57644;BME280;43474;46.510;6.686;2023-02-26T07:37:12;95387.69;;;-1.12;81.72
57644;BME280;43474;46.510;6.686;2023-02-26T07:39:38;95386.88;;;-1.12;81.10
57644;BME280;43474;46.510;6.686;2023-02-26T07:42:04;95381.91;;;-1.07;81.40
57644;BME280;43474;46.510;6.686;2023-02-26T07:44:29;95382.19;;;-0.95;80.14
57644;BME280;43474;46.510;6.686;2023-02-26T07:46:55;95371.66;;;-0.81;80.56
57644;BME280;43474;46.510;6.686;2023-02-26T07:49:20;95381.50;;;-0.76;80.20
57644;BME280;43474;46.510;6.686;2023-02-26T07:51:47;95375.28;;;0.28;77.09
57644;BME280;43474;46.510;6.686;2023-02-26T07:54:13;95369.31;;;0.93;73.53
57644;BME280;43474;46.510;6.686;2023-02-26T07:56:39;95350.75;;;1.41;72.24
57644;BME280;43474;46.510;6.686;2023-02-26T07:59:08;95364.25;;;1.25;70.99
57644;BME280;43474;46.510;6.686;2023-02-26T08:01:34;95375.41;;;2.03;70.10
57644;BME280;43474;46.510;6.686;2023-02-26T08:04:00;95379.50;;;2.31;68.48
57644;BME280;43474;46.510;6.686;2023-02-26T08:06:27;95375.06;;;2.88;67.24
57644;BME280;43474;46.510;6.686;2023-02-26T08:08:53;95360.53;;;2.67;65.90
57644;BME280;43474;46.510;6.686;2023-02-26T08:11:18;95360.28;;;3.44;65.44
57644;BME280;43474;46.510;6.686;2023-02-26T08:13:44;95345.91;;;3.46;64.05
57644;BME280;43474;46.510;6.686;2023-02-26T08:16:09;95364.81;;;4.03;62.04
57644;BME280;43474;46.510;6.686;2023-02-26T08:18:35;95343.34;;;3.76;61.52
57644;BME280;43474;46.510;6.686;2023-02-26T08:21:01;95359.59;;;3.85;62.07
57644;BME280;43474;46.510;6.686;2023-02-26T08:23:27;95345.13;;;4.43;61.58
57644;BME280;43474;46.510;6.686;2023-02-26T08:26:01;95372.28;;;4.18;58.49
57644;BME280;43474;46.510;6.686;2023-02-26T08:28:27;95364.97;;;3.35;61.05
57644;BME280;43474;46.510;6.686;2023-02-26T08:30:52;95349.19;;;3.78;60.84
57644;BME280;43474;46.510;6.686;2023-02-26T08:33:18;95361.91;;;3.93;59.79
57644;BME280;43474;46.510;6.686;2023-02-26T08:35:44;95359.34;;;2.88;62.69
57644;BME280;43474;46.510;6.686;2023-02-26T08:38:09;95346.44;;;2.68;63.80
57644;BME280;43474;46.510;6.686;2023-02-26T08:40:35;95371.84;;;1.40;67.03
57644;BME280;43474;46.510;6.686;2023-02-26T08:43:01;95376.72;;;0.83;71.26
57644;BME280;43474;46.510;6.686;2023-02-26T08:45:28;95382.38;;;0.80;72.26
57644;BME280;43474;46.510;6.686;2023-02-26T08:47:54;95377.53;;;1.10;71.91
57644;BME280;43474;46.510;6.686;2023-02-26T08:50:20;95376.72;;;0.83;71.01
57644;BME280;43474;46.510;6.686;2023-02-26T08:52:46;95370.50;;;0.58;73.57
57644;BME280;43474;46.510;6.686;2023-02-26T08:55:12;95375.13;;;0.42;76.63
57644;BME280;43474;46.510;6.686;2023-02-26T08:57:37;95364.06;;;0.27;74.40
57644;BME280;43474;46.510;6.686;2023-02-26T09:00:05;95379.66;;;0.07;74.37
57644;BME280;43474;46.510;6.686;2023-02-26T09:02:35;95361.66;;;0.39;76.15
57644;BME280;43474;46.510;6.686;2023-02-26T09:05:00;95366.84;;;0.06;75.06
57644;BME280;43474;46.510;6.686;2023-02-26T09:07:26;95395.16;;;0.35;76.96
57644;BME280;43474;46.510;6.686;2023-02-26T09:09:52;95387.69;;;0.19;73.77
57644;BME280;43474;46.510;6.686;2023-02-26T09:12:17;95368.50;;;0.93;74.55
57644;BME280;43474;46.510;6.686;2023-02-26T09:14:43;95342.25;;;0.41;71.46
57644;BME280;43474;46.510;6.686;2023-02-26T09:17:08;95367.69;;;2.22;69.79
57644;BME280;43474;46.510;6.686;2023-02-26T09:19:34;95357.13;;;2.92;63.15
57644;BME280;43474;46.510;6.686;2023-02-26T09:22:00;95367.44;;;2.30;63.02
57644;BME280;43474;46.510;6.686;2023-02-26T09:24:25;95378.34;;;2.20;63.10
57644;BME280;43474;46.510;6.686;2023-02-26T09:26:51;95375.72;;;3.08;60.68
57644;BME280;43474;46.510;6.686;2023-02-26T09:29:16;95397.63;;;2.89;59.53
57644;BME280;43474;46.510;6.686;2023-02-26T09:31:42;95382.00;;;2.13;61.24
57644;BME280;43474;46.510;6.686;2023-02-26T09:34:08;95372.09;;;2.84;61.28
57644;BME280;43474;46.510;6.686;2023-02-26T09:36:34;95363.50;;;3.94;58.91
57644;BME280;43474;46.510;6.686;2023-02-26T09:38:59;95367.50;;;4.27;59.82
57644;BME280;43474;46.510;6.686;2023-02-26T09:41:35;95379.59;;;3.24;57.06
57644;BME280;43474;46.510;6.686;2023-02-26T09:51:46;95398.69;;;3.68;57.10
57644;BME280;43474;46.510;6.686;2023-02-26T09:54:20;95385.44;;;2.06;61.68
57644;BME280;43474;46.510;6.686;2023-02-26T09:56:49;95406.16;;;1.43;61.64
57644;BME280;43474;46.510;6.686;2023-02-26T09:59:15;95423.69;;;0.96;64.62
57644;BME280;43474;46.510;6.686;2023-02-26T10:01:57;95411.81;;;1.27;64.42
57644;BME280;43474;46.510;6.686;2023-02-26T10:08:25;95428.75;;;1.83;63.56
57644;BME280;43474;46.510;6.686;2023-02-26T10:12:50;95409.84;;;0.83;65.14
57644;BME280;43474;46.510;6.686;2023-02-26T10:15:23;95409.63;;;0.97;66.60
57644;BME280;43474;46.510;6.686;2023-02-26T10:21:00;95410.03;;;1.08;63.25
57644;BME280;43474;46.510;6.686;2023-02-26T10:23:41;95419.25;;;1.03;62.09
57644;BME280;43474;46.510;6.686;2023-02-26T10:26:15;95413.44;;;1.08;62.61
57644;BME280;43474;46.510;6.686;2023-02-26T10:32:14;95422.63;;;2.08;57.05
57644;BME280;43474;46.510;6.686;2023-02-26T10:34:57;95427.19;;;1.75;58.86
57644;BME280;43474;46.510;6.686;2023-02-26T10:37:35;95387.94;;;1.30;58.50
57644;BME280;43474;46.510;6.686;2023-02-26T10:40:16;95398.63;;;0.95;60.13
57644;BME280;43474;46.510;6.686;2023-02-26T10:42:47;95417.84;;;0.74;58.80
57644;BME280;43474;46.510;6.686;2023-02-26T10:50:55;95431.84;;;1.53;58.10
57644;BME280;43474;46.510;6.686;2023-02-26T10:53:21;95421.63;;;2.10;61.46
57644;BME280;43474;46.510;6.686;2023-02-26T10:55:51;95401.00;;;1.88;59.58
57644;BME280;43474;46.510;6.686;2023-02-26T10:58:23;95421.78;;;2.84;56.33
57644;BME280;43474;46.510;6.686;2023-02-26T11:00:51;95404.16;;;2.03;57.36
57644;BME280;43474;46.510;6.686;2023-02-26T11:03:23;95392.69;;;1.60;57.21
57644;BME280;43474;46.510;6.686;2023-02-26T11:05:52;95419.22;;;2.08;56.90
57644;BME280;43474;46.510;6.686;2023-02-26T11:08:23;95391.88;;;2.42;55.51
57644;BME280;43474;46.510;6.686;2023-02-26T11:10:56;95414.59;;;3.05;55.32
57644;BME280;43474;46.510;6.686;2023-02-26T11:13:24;95407.13;;;3.27;53.60
57644;BME280;43474;46.510;6.686;2023-02-26T11:15:54;95404.78;;;3.44;52.81
57644;BME280;43474;46.510;6.686;2023-02-26T11:18:29;95409.22;;;3.61;51.35
57644;BME280;43474;46.510;6.686;2023-02-26T11:20:59;95413.81;;;4.03;50.06
57644;BME280;43474;46.510;6.686;2023-02-26T11:23:27;95430.19;;;3.80;50.60
57644;BME280;43474;46.510;6.686;2023-02-26T11:26:15;95428.63;;;2.85;49.93
57644;BME280;43474;46.510;6.686;2023-02-26T11:28:47;95379.56;;;3.06;50.21
57644;BME280;43474;46.510;6.686;2023-02-26T11:31:18;95364.47;;;4.30;50.21
57644;BME280;43474;46.510;6.686;2023-02-26T11:34:12;95401.28;;;4.65;51.62
57644;BME280;43474;46.510;6.686;2023-02-26T11:36:39;95407.53;;;4.94;49.70
57644;BME280;43474;46.510;6.686;2023-02-26T11:39:16;95399.41;;;4.84;50.43
57644;BME280;43474;46.510;6.686;2023-02-26T11:41:45;95425.50;;;5.44;49.97
57644;BME280;43474;46.510;6.686;2023-02-26T11:44:20;95410.63;;;5.03;47.98
57644;BME280;43474;46.510;6.686;2023-02-26T11:46:51;95439.41;;;5.09;47.04
57644;BME280;43474;46.510;6.686;2023-02-26T11:49:20;95442.72;;;4.63;47.56
57644;BME280;43474;46.510;6.686;2023-02-26T11:51:58;95412.28;;;4.74;47.97
57644;BME280;43474;46.510;6.686;2023-02-26T11:54:27;95400.13;;;5.14;48.06
57644;BME280;43474;46.510;6.686;2023-02-26T11:57:01;95406.75;;;5.40;47.79
57644;BME280;43474;46.510;6.686;2023-02-26T11:59:30;95390.53;;;5.32;47.51
57644;BME280;43474;46.510;6.686;2023-02-26T12:02:01;95409.13;;;5.07;45.18
57644;BME280;43474;46.510;6.686;2023-02-26T12:04:27;95419.97;;;4.99;46.66
57644;BME280;43474;46.510;6.686;2023-02-26T12:06:54;95436.66;;;4.62;45.23
57644;BME280;43474;46.510;6.686;2023-02-26T12:09:20;95409.28;;;4.70;48.35
57644;BME280;43474;46.510;6.686;2023-02-26T12:20:31;95441.53;;;5.01;50.20
57644;BME280;43474;46.510;6.686;2023-02-26T12:22:49;95435.22;;;5.43;49.03
57644;BME280;43474;46.510;6.686;2023-02-26T12:33:48;95421.53;;;4.46;48.97
57644;BME280;43474;46.510;6.686;2023-02-26T12:36:28;95416.06;;;4.78;48.99
57644;BME280;43474;46.510;6.686;2023-02-26T12:39:02;95396.03;;;4.65;47.01
57644;BME280;43474;46.510;6.686;2023-02-26T12:53:47;95442.78;;;4.56;49.42
57644;BME280;43474;46.510;6.686;2023-02-26T12:56:41;95430.25;;;3.55;47.66
57644;BME280;43474;46.510;6.686;2023-02-26T13:09:58;95409.81;;;3.63;49.16
57644;BME280;43474;46.510;6.686;2023-02-26T13:15:34;95419.22;;;3.89;46.19
57644;BME280;43474;46.510;6.686;2023-02-26T13:18:20;95388.00;;;3.88;46.76
57644;BME280;43474;46.510;6.686;2023-02-26T13:20:56;95408.50;;;4.09;47.59
57644;BME280;43474;46.510;6.686;2023-02-26T13:23:30;95385.72;;;3.55;47.25
57644;BME280;43474;46.510;6.686;2023-02-26T13:26:05;95399.50;;;4.17;46.75
57644;BME280;43474;46.510;6.686;2023-02-26T13:28:43;95398.28;;;4.50;46.76
57644;BME280;43474;46.510;6.686;2023-02-26T13:31:25;95392.72;;;4.58;47.36
57644;BME280;43474;46.510;6.686;2023-02-26T13:33:54;95400.75;;;4.14;46.05
57644;BME280;43474;46.510;6.686;2023-02-26T13:36:23;95409.78;;;4.19;46.51
57644;BME280;43474;46.510;6.686;2023-02-26T13:42:00;95398.84;;;4.22;47.58
57644;BME280;43474;46.510;6.686;2023-02-26T13:44:51;95398.97;;;4.27;47.34
57644;BME280;43474;46.510;6.686;2023-02-26T13:53:00;95370.53;;;3.63;48.46
57644;BME280;43474;46.510;6.686;2023-02-26T13:55:47;95362.41;;;4.02;50.46
57644;BME280;43474;46.510;6.686;2023-02-26T14:01:06;95394.81;;;3.89;48.65
57644;BME280;43474;46.510;6.686;2023-02-26T14:03:35;95399.56;;;3.80;48.96
57644;BME280;43474;46.510;6.686;2023-02-26T14:14:42;95370.72;;;3.99;48.45
57644;BME280;43474;46.510;6.686;2023-02-26T14:19:40;95365.16;;;2.40;48.29
57644;BME280;43474;46.510;6.686;2023-02-26T14:22:20;95366.28;;;2.51;49.44
57644;BME280;43474;46.510;6.686;2023-02-26T14:24:53;95375.22;;;2.37;51.04
57644;BME280;43474;46.510;6.686;2023-02-26T14:27:31;95360.78;;;2.34;51.26
57644;BME280;43474;46.510;6.686;2023-02-26T14:30:02;95350.69;;;2.38;50.96
57644;BME280;43474;46.510;6.686;2023-02-26T14:32:32;95366.31;;;2.76;51.73
57644;BME280;43474;46.510;6.686;2023-02-26T14:35:04;95363.22;;;2.61;49.90
57644;BME280;43474;46.510;6.686;2023-02-26T14:37:32;95375.31;;;2.55;50.76
57644;BME280;43474;46.510;6.686;2023-02-26T14:40:19;95375.78;;;2.45;49.69
57644;BME280;43474;46.510;6.686;2023-02-26T14:42:50;95367.66;;;2.53;49.87
57644;BME280;43474;46.510;6.686;2023-02-26T14:47:46;95363.84;;;2.81;50.61
57644;BME280;43474;46.510;6.686;2023-02-26T14:50:18;95372.81;;;2.67;48.63
57644;BME280;43474;46.510;6.686;2023-02-26T14:53:21;95359.56;;;2.62;48.71
57644;BME280;43474;46.510;6.686;2023-02-26T14:56:02;95368.94;;;2.76;50.48
57644;BME280;43474;46.510;6.686;2023-02-26T14:58:45;95373.31;;;2.19;50.11
57644;BME280;43474;46.510;6.686;2023-02-26T15:04:28;95374.97;;;2.13;50.52
57644;BME280;43474;46.510;6.686;2023-02-26T15:12:53;95366.03;;;2.27;50.19
57644;BME280;43474;46.510;6.686;2023-02-26T15:21:13;95383.22;;;2.10;51.39
57644;BME280;43474;46.510;6.686;2023-02-26T15:23:52;95362.66;;;1.82;51.44
57644;BME280;43474;46.510;6.686;2023-02-26T15:26:24;95388.19;;;1.80;51.32
57644;BME280;43474;46.510;6.686;2023-02-26T15:28:52;95378.00;;;1.59;50.88
57644;BME280;43474;46.510;6.686;2023-02-26T15:31:27;95390.47;;;1.57;52.13
57644;BME280;43474;46.510;6.686;2023-02-26T15:33:55;95368.38;;;1.52;53.08
57644;BME280;43474;46.510;6.686;2023-02-26T15:36:22;95358.19;;;1.44;52.41
57644;BME280;43474;46.510;6.686;2023-02-26T15:39:00;95378.63;;;1.54;53.48
57644;BME280;43474;46.510;6.686;2023-02-26T15:41:29;95388.03;;;1.62;53.20
57644;BME280;43474;46.510;6.686;2023-02-26T15:44:00;95380.25;;;1.48;52.21
57644;BME280;43474;46.510;6.686;2023-02-26T15:46:31;95367.25;;;1.28;54.31